Time;durP1;ratioP1;P1;durP2;ratioP2;P2;SDS_P1;SDS_P2;PMS_P1;PMS_P2;Temp;Humidity;BMP_temperature;BMP_pressure;BME280_temperature;BME280_humidity;BME280_pressure;Samples;Min_cycle;Max_cycle;Signal;HPM_P1;HPM_P2
2021/06/03 00:01:28;;;;;;;5.35;4.15;;;;;;;;;;5059245;28;20201;-70
2021/06/03 00:03:53;;;;;;;5.00;4.35;;;;;;;;;;5064433;28;20252;-71
2021/06/03 00:06:18;;;;;;;5.10;4.70;;;;;;;;;;5066736;28;20276;-71
2021/06/03 00:08:45;;;;;;;4.90;4.40;;;;;;;;;;5068890;28;20226;-70
2021/06/03 00:11:11;;;;;;;5.88;4.25;;;;;;;;;;5068122;28;20646;-70
2021/06/03 00:13:37;;;;;;;5.20;3.90;;;;;;;;;;5058845;28;20258;-71
2021/06/03 00:16:07;;;;;;;5.47;4.53;;;;;;;;;;5052264;28;20691;-70
2021/06/03 00:18:32;;;;;;;5.50;4.50;;;;;;;;;;5060165;28;20297;-70
2021/06/03 00:20:57;;;;;;;5.82;4.15;;;;;;;;;;5069208;28;20205;-70
2021/06/03 00:23:23;;;;;;;6.75;4.63;;;;;;;;;;5064291;28;20233;-70
2021/06/03 00:25:48;;;;;;;6.57;4.78;;;;;;;;;;5066673;28;20611;-70
2021/06/03 00:28:14;;;;;;;6.60;4.63;;;;;;;;;;5058893;28;20561;-70
2021/06/03 00:30:39;;;;;;;5.55;4.70;;;;;;;;;;5055681;28;20300;-71
2021/06/03 00:33:04;;;;;;;5.45;4.95;;;;;;;;;;5062307;28;20204;-71
2021/06/03 00:35:30;;;;;;;5.82;5.18;;;;;;;;;;5062039;28;20556;-70
2021/06/03 00:37:55;;;;;;;8.50;5.13;;;;;;;;;;5062311;28;20537;-70
2021/06/03 00:40:21;;;;;;;5.65;5.15;;;;;;;;;;5058677;28;20189;-70
2021/06/03 00:42:46;;;;;;;6.10;5.53;;;;;;;;;;5058982;28;20302;-70
2021/06/03 00:45:13;;;;;;;5.63;5.03;;;;;;;;;;5059461;28;20199;-71
2021/06/03 00:47:38;;;;;;;5.65;4.95;;;;;;;;;;5060739;28;20186;-70
2021/06/03 00:50:08;;;;;;;7.97;4.70;;;;;;;;;;5061900;28;20669;-71
2021/06/03 00:52:34;;;;;;;7.38;5.47;;;;;;;;;;5061409;28;20221;-70
2021/06/03 00:54:59;;;;;;;10.90;5.43;;;;;;;;;;5061265;28;20675;-70
2021/06/03 00:57:24;;;;;;;5.63;5.13;;;;;;;;;;5045903;28;21553;-70
2021/06/03 00:59:49;;;;;;;6.70;6.10;;;;;;;;;;5055829;28;20231;-70
2021/06/03 01:02:14;;;;;;;7.00;6.30;;;;;;;;;;5060877;28;20178;-70
2021/06/03 01:04:40;;;;;;;7.70;6.70;;;;;;;;;;5056586;28;20525;-70
2021/06/03 01:07:05;;;;;;;7.27;6.43;;;;;;;;;;5057097;28;20244;-70
2021/06/03 01:10:02;;;;;;;7.60;7.00;;;;;;;;;;5059609;28;20764;-70
2021/06/03 01:12:31;;;;;;;6.90;6.28;;;;;;;;;;5042327;28;20190;-71
2021/06/03 01:15:01;;;;;;;7.15;6.45;;;;;;;;;;5057971;28;20207;-70
2021/06/03 01:17:27;;;;;;;14.63;6.68;;;;;;;;;;5058503;28;20227;-70
2021/06/03 01:19:53;;;;;;;6.45;5.68;;;;;;;;;;5060537;28;20166;-70
2021/06/03 01:22:21;;;;;;;8.45;5.90;;;;;;;;;;5058000;28;20185;-70
2021/06/03 01:24:53;;;;;;;7.63;5.13;;;;;;;;;;5059208;28;20173;-70
2021/06/03 01:27:24;;;;;;;6.68;6.07;;;;;;;;;;5058227;28;20235;-70
2021/06/03 01:29:58;;;;;;;7.72;5.45;;;;;;;;;;5061419;28;20652;-70
2021/06/03 01:32:24;;;;;;;7.53;5.88;;;;;;;;;;5058484;28;20177;-70
2021/06/03 01:34:50;;;;;;;8.02;5.25;;;;;;;;;;5051125;28;20181;-71
2021/06/03 01:37:15;;;;;;;5.35;4.85;;;;;;;;;;5049006;28;20230;-70
2021/06/03 01:39:42;;;;;;;6.28;5.00;;;;;;;;;;5052516;28;20720;-70
2021/06/03 01:42:07;;;;;;;6.25;5.65;;;;;;;;;;5047738;28;20180;-70
2021/06/03 01:44:33;;;;;;;5.63;4.53;;;;;;;;;;5061284;28;20247;-71
2021/06/03 01:46:58;;;;;;;5.70;4.35;;;;;;;;;;5060630;28;20211;-70
2021/06/03 01:49:24;;;;;;;5.45;4.90;;;;;;;;;;5050513;28;20243;-70
2021/06/03 01:51:50;;;;;;;8.52;4.63;;;;;;;;;;5050766;28;20185;-70
2021/06/03 01:54:15;;;;;;;5.25;4.38;;;;;;;;;;5049867;28;20216;-70
2021/06/03 01:56:41;;;;;;;5.18;4.15;;;;;;;;;;5055466;28;20204;-69
2021/06/03 01:59:06;;;;;;;5.25;4.85;;;;;;;;;;5049612;28;20178;-70
2021/06/03 02:01:31;;;;;;;6.73;4.30;;;;;;;;;;5050976;28;20257;-70
2021/06/03 02:03:57;;;;;;;4.10;3.77;;;;;;;;;;5048025;28;20449;-70
2021/06/03 02:06:22;;;;;;;3.88;3.63;;;;;;;;;;5046354;28;20429;-70
2021/06/03 02:08:48;;;;;;;4.75;4.20;;;;;;;;;;5053406;28;20190;-70
2021/06/03 02:11:13;;;;;;;5.05;4.18;;;;;;;;;;5016641;28;20682;-70
2021/06/03 02:13:46;;;;;;;4.25;3.85;;;;;;;;;;5046278;28;20220;-70
2021/06/03 02:16:31;;;;;;;4.30;3.95;;;;;;;;;;5053659;28;20205;-70
2021/06/03 02:19:02;;;;;;;6.07;4.38;;;;;;;;;;5051862;28;20196;-70
2021/06/03 02:21:28;;;;;;;4.35;4.05;;;;;;;;;;5048441;28;20213;-70
2021/06/03 02:23:53;;;;;;;5.20;4.43;;;;;;;;;;5057577;28;20534;-70
2021/06/03 02:26:19;;;;;;;4.15;3.85;;;;;;;;;;5051266;28;20864;-70
2021/06/03 02:28:45;;;;;;;5.65;4.68;;;;;;;;;;5049551;28;20185;-70
2021/06/03 02:31:11;;;;;;;5.55;4.75;;;;;;;;;;5046645;28;20192;-70
2021/06/03 02:33:36;;;;;;;5.25;4.75;;;;;;;;;;5049825;28;20208;-70
2021/06/03 02:36:02;;;;;;;5.03;4.63;;;;;;;;;;5048512;28;20205;-70
2021/06/03 02:38:29;;;;;;;5.07;4.57;;;;;;;;;;5052997;28;20208;-71
2021/06/03 02:40:57;;;;;;;4.78;4.00;;;;;;;;;;5055440;28;20185;-70
2021/06/03 02:43:23;;;;;;;4.78;4.05;;;;;;;;;;5049142;28;20320;-71
2021/06/03 02:45:48;;;;;;;4.15;3.78;;;;;;;;;;5053930;28;20177;-70
2021/06/03 02:48:13;;;;;;;5.30;4.90;;;;;;;;;;5051790;28;20708;-70
2021/06/03 02:50:39;;;;;;;5.22;4.80;;;;;;;;;;5050686;28;20658;-70
2021/06/03 02:53:04;;;;;;;5.60;5.00;;;;;;;;;;5050397;28;20248;-70
2021/06/03 02:55:30;;;;;;;5.20;4.70;;;;;;;;;;5049492;28;20279;-71
2021/06/03 02:57:55;;;;;;;5.30;4.60;;;;;;;;;;5051988;28;20442;-70
2021/06/03 03:00:22;;;;;;;5.70;4.72;;;;;;;;;;5045901;28;20181;-70
2021/06/03 03:02:48;;;;;;;6.30;5.70;;;;;;;;;;5049332;28;20196;-70
2021/06/03 03:05:13;;;;;;;5.63;5.10;;;;;;;;;;5047049;28;20191;-70
2021/06/03 03:07:38;;;;;;;5.75;5.18;;;;;;;;;;5052867;28;20244;-71
2021/06/03 03:10:05;;;;;;;5.00;4.60;;;;;;;;;;5052562;28;20182;-70
2021/06/03 03:12:30;;;;;;;5.57;5.05;;;;;;;;;;5052669;28;20213;-71
2021/06/03 03:14:55;;;;;;;5.90;4.50;;;;;;;;;;5057783;28;20183;-70
2021/06/03 03:17:20;;;;;;;5.20;4.70;;;;;;;;;;5056934;28;20333;-71
2021/06/03 03:19:46;;;;;;;6.22;5.63;;;;;;;;;;5055394;28;20422;-70
2021/06/03 03:22:11;;;;;;;6.65;5.32;;;;;;;;;;5052125;28;20200;-70
2021/06/03 03:24:36;;;;;;;5.72;5.22;;;;;;;;;;5055912;28;20180;-70
2021/06/03 03:27:01;;;;;;;7.20;5.90;;;;;;;;;;5061310;28;20189;-70
2021/06/03 03:29:27;;;;;;;5.38;4.88;;;;;;;;;;5052663;28;21847;-70
2021/06/03 03:31:52;;;;;;;7.90;5.77;;;;;;;;;;5050622;28;20189;-70
2021/06/03 03:34:17;;;;;;;5.57;5.05;;;;;;;;;;5053055;28;20917;-70
2021/06/03 03:36:42;;;;;;;5.78;4.88;;;;;;;;;;5051455;28;20266;-70
2021/06/03 03:39:07;;;;;;;5.20;4.70;;;;;;;;;;5056583;28;20211;-70
2021/06/03 03:41:33;;;;;;;5.90;5.40;;;;;;;;;;5062529;28;20181;-70
2021/06/03 03:43:58;;;;;;;6.40;5.80;;;;;;;;;;5052946;28;20844;-70
2021/06/03 03:46:23;;;;;;;5.90;5.45;;;;;;;;;;5053621;28;20199;-70
2021/06/03 03:48:49;;;;;;;6.25;5.65;;;;;;;;;;5054524;28;20268;-70
2021/06/03 03:51:15;;;;;;;6.95;6.22;;;;;;;;;;5057356;28;20196;-71
2021/06/03 03:53:40;;;;;;;6.38;5.85;;;;;;;;;;5053726;28;20192;-71
2021/06/03 03:56:06;;;;;;;7.05;5.88;;;;;;;;;;5058189;28;20211;-70
2021/06/03 03:58:32;;;;;;;7.18;6.53;;;;;;;;;;5053168;28;20546;-70
2021/06/03 04:00:57;;;;;;;6.30;5.65;;;;;;;;;;5055575;28;20225;-70
2021/06/03 04:03:22;;;;;;;7.30;6.55;;;;;;;;;;5051968;28;21989;-70
2021/06/03 04:05:47;;;;;;;7.35;6.72;;;;;;;;;;5052946;28;20196;-70
2021/06/03 04:08:12;;;;;;;7.30;6.70;;;;;;;;;;5058851;28;20224;-70
2021/06/03 04:10:38;;;;;;;9.77;8.32;;;;;;;;;;5053917;28;20459;-71
2021/06/03 04:13:03;;;;;;;8.35;7.35;;;;;;;;;;5051112;28;20209;-70
2021/06/03 04:15:28;;;;;;;7.80;6.97;;;;;;;;;;5055527;28;20211;-70
2021/06/03 04:17:53;;;;;;;7.55;6.85;;;;;;;;;;5053213;28;20187;-70
2021/06/03 04:20:20;;;;;;;7.55;6.88;;;;;;;;;;5054085;28;20658;-70
2021/06/03 04:22:45;;;;;;;6.40;5.85;;;;;;;;;;5052021;28;20308;-70
2021/06/03 04:25:10;;;;;;;9.13;8.23;;;;;;;;;;5062853;28;20419;-70
2021/06/03 04:27:36;;;;;;;8.02;7.30;;;;;;;;;;5051540;28;21914;-70
2021/06/03 04:30:03;;;;;;;7.22;6.18;;;;;;;;;;5053413;28;20191;-71
2021/06/03 04:32:28;;;;;;;7.82;7.15;;;;;;;;;;5049532;28;20181;-71
2021/06/03 04:34:54;;;;;;;10.57;8.55;;;;;;;;;;5051547;28;20184;-71
2021/06/03 04:37:20;;;;;;;8.73;7.22;;;;;;;;;;5053494;28;20203;-71
2021/06/03 04:39:46;;;;;;;7.53;6.78;;;;;;;;;;5051391;28;20193;-71
2021/06/03 04:42:11;;;;;;;8.32;7.07;;;;;;;;;;5058943;28;20184;-71
2021/06/03 04:44:36;;;;;;;7.85;7.15;;;;;;;;;;5051038;28;20261;-70
2021/06/03 04:47:01;;;;;;;8.00;7.30;;;;;;;;;;5059171;28;20192;-69
2021/06/03 04:49:26;;;;;;;10.27;7.25;;;;;;;;;;5047363;28;20186;-71
2021/06/03 04:51:52;;;;;;;7.95;7.25;;;;;;;;;;5055114;28;20190;-71
2021/06/03 04:54:17;;;;;;;8.05;7.28;;;;;;;;;;5050617;28;20212;-70
2021/06/03 04:56:42;;;;;;;8.18;7.38;;;;;;;;;;5053597;28;20722;-71
2021/06/03 04:59:07;;;;;;;7.40;6.80;;;;;;;;;;5052769;28;20190;-69
2021/06/03 05:01:33;;;;;;;8.07;7.38;;;;;;;;;;5056565;28;20441;-70
2021/06/03 05:03:58;;;;;;;9.30;8.23;;;;;;;;;;5052298;28;20288;-70
2021/06/03 05:06:23;;;;;;;9.32;7.32;;;;;;;;;;5050544;28;20266;-70
2021/06/03 05:08:48;;;;;;;9.40;8.37;;;;;;;;;;5052550;28;20180;-70
2021/06/03 05:11:14;;;;;;;8.25;7.43;;;;;;;;;;5051638;28;20433;-69
2021/06/03 05:13:39;;;;;;;8.32;7.53;;;;;;;;;;5051417;28;20208;-70
2021/06/03 05:16:05;;;;;;;8.23;7.38;;;;;;;;;;5053302;28;20207;-70
2021/06/03 05:18:31;;;;;;;8.70;7.90;;;;;;;;;;5051578;28;20178;-69
2021/06/03 05:20:56;;;;;;;8.93;7.85;;;;;;;;;;5062686;28;20753;-70
2021/06/03 05:23:22;;;;;;;8.68;7.72;;;;;;;;;;5053383;28;20233;-70
2021/06/03 05:25:48;;;;;;;8.75;7.85;;;;;;;;;;5051715;28;20181;-70
2021/06/03 05:28:13;;;;;;;8.35;7.55;;;;;;;;;;5051271;28;20191;-71
2021/06/03 05:30:39;;;;;;;9.68;7.72;;;;;;;;;;5055273;28;20589;-69
2021/06/03 05:33:04;;;;;;;8.93;7.85;;;;;;;;;;5048981;28;20689;-70
2021/06/03 05:35:30;;;;;;;8.82;8.02;;;;;;;;;;5048899;28;20285;-70
2021/06/03 05:37:55;;;;;;;9.10;8.30;;;;;;;;;;5053843;28;20173;-71
2021/06/03 05:40:21;;;;;;;9.10;8.20;;;;;;;;;;5054088;28;20583;-71
2021/06/03 05:42:47;;;;;;;8.68;7.82;;;;;;;;;;5055898;28;20206;-71
2021/06/03 05:45:13;;;;;;;8.75;8.00;;;;;;;;;;5051944;28;20185;-71
2021/06/03 05:47:38;;;;;;;9.18;8.23;;;;;;;;;;5054122;28;20267;-71
2021/06/03 05:50:06;;;;;;;9.32;8.43;;;;;;;;;;5050341;28;20211;-70
2021/06/03 05:52:32;;;;;;;11.07;9.07;;;;;;;;;;5056071;28;20574;-70
2021/06/03 05:54:57;;;;;;;9.52;8.63;;;;;;;;;;5055698;28;20185;-71
2021/06/03 05:57:22;;;;;;;10.25;8.20;;;;;;;;;;5055063;28;20301;-71
2021/06/03 05:59:47;;;;;;;9.85;8.48;;;;;;;;;;5053087;28;20616;-71
2021/06/03 06:02:19;;;;;;;10.82;8.23;;;;;;;;;;5059400;28;20184;-71
2021/06/03 06:07:28;;;;;;;9.50;8.48;;;;;;;;;;5061270;28;20279;-71
2021/06/03 06:09:53;;;;;;;8.68;7.82;;;;;;;;;;5053086;28;20583;-70
2021/06/03 06:12:18;;;;;;;9.57;8.48;;;;;;;;;;5052508;28;20180;-71
2021/06/03 06:14:44;;;;;;;8.35;7.65;;;;;;;;;;5053338;28;20696;-71
2021/06/03 06:17:10;;;;;;;8.87;8.13;;;;;;;;;;5058034;28;20209;-71
2021/06/03 06:19:35;;;;;;;9.73;8.13;;;;;;;;;;5052310;28;20422;-71
2021/06/03 06:22:00;;;;;;;9.50;8.60;;;;;;;;;;5050637;28;20236;-71
2021/06/03 06:24:25;;;;;;;9.87;8.57;;;;;;;;;;5058421;28;20209;-71
2021/06/03 06:26:51;;;;;;;9.60;8.53;;;;;;;;;;5059001;28;21039;-71
2021/06/03 06:29:16;;;;;;;9.33;8.43;;;;;;;;;;5052266;28;20969;-71
2021/06/03 06:31:41;;;;;;;9.70;7.68;;;;;;;;;;5058636;28;20437;-71
2021/06/03 06:34:06;;;;;;;8.93;8.03;;;;;;;;;;5067755;28;20295;-71
2021/06/03 06:36:31;;;;;;;9.13;8.23;;;;;;;;;;5060412;28;20920;-70
2021/06/03 06:38:57;;;;;;;8.80;7.90;;;;;;;;;;5050879;28;20437;-70
2021/06/03 06:41:22;;;;;;;9.37;8.43;;;;;;;;;;5062619;28;21038;-71
2021/06/03 06:43:47;;;;;;;8.88;7.97;;;;;;;;;;5049957;28;20450;-71
2021/06/03 06:46:12;;;;;;;9.32;7.95;;;;;;;;;;5052828;28;20242;-70
2021/06/03 06:48:38;;;;;;;8.93;8.03;;;;;;;;;;5045918;28;20195;-71
2021/06/03 06:51:03;;;;;;;8.43;7.63;;;;;;;;;;5054134;28;20466;-71
2021/06/03 06:53:28;;;;;;;8.98;8.07;;;;;;;;;;5049475;28;20297;-71
2021/06/03 06:55:54;;;;;;;9.32;8.48;;;;;;;;;;5049859;28;20324;-71
2021/06/03 06:58:19;;;;;;;9.82;8.48;;;;;;;;;;5050071;28;20772;-71
2021/06/03 07:00:45;;;;;;;9.00;7.93;;;;;;;;;;5050687;28;20276;-71
2021/06/03 07:03:10;;;;;;;9.82;8.60;;;;;;;;;;5049453;28;20457;-71
2021/06/03 07:05:37;;;;;;;10.25;9.18;;;;;;;;;;5050666;28;20604;-71
2021/06/03 07:08:02;;;;;;;10.35;9.43;;;;;;;;;;5049814;28;20186;-70
2021/06/03 07:10:27;;;;;;;10.10;8.82;;;;;;;;;;5051898;28;20172;-71
2021/06/03 07:12:52;;;;;;;9.80;8.60;;;;;;;;;;5060906;28;20209;-71
2021/06/03 07:15:18;;;;;;;9.10;8.20;;;;;;;;;;5047856;28;20217;-70
2021/06/03 07:17:44;;;;;;;9.70;8.70;;;;;;;;;;5048605;28;20420;-70
2021/06/03 07:20:11;;;;;;;11.25;9.05;;;;;;;;;;5050635;28;20179;-70
2021/06/03 07:22:37;;;;;;;10.15;9.25;;;;;;;;;;5057935;28;20611;-71
2021/06/03 07:25:03;;;;;;;9.20;8.38;;;;;;;;;;5057228;28;21835;-71
2021/06/03 07:27:28;;;;;;;10.27;9.32;;;;;;;;;;5051356;28;20185;-71
2021/06/03 07:29:58;;;;;;;9.25;8.48;;;;;;;;;;5048707;28;20173;-71
2021/06/03 07:32:24;;;;;;;10.95;9.75;;;;;;;;;;5057563;28;20722;-71
2021/06/03 07:34:49;;;;;;;9.77;8.68;;;;;;;;;;5045968;28;20184;-70
2021/06/03 07:37:14;;;;;;;9.20;8.20;;;;;;;;;;5054523;28;20641;-71
2021/06/03 07:39:39;;;;;;;9.07;8.33;;;;;;;;;;5051697;28;20449;-70
2021/06/03 07:42:05;;;;;;;9.60;8.65;;;;;;;;;;5049990;28;20425;-70
2021/06/03 07:44:30;;;;;;;10.05;9.05;;;;;;;;;;5051747;28;20201;-71
2021/06/03 07:46:55;;;;;;;8.37;7.57;;;;;;;;;;5051747;28;20314;-71
2021/06/03 07:49:20;;;;;;;9.88;8.88;;;;;;;;;;5049643;28;20181;-70
2021/06/03 07:51:45;;;;;;;9.23;8.40;;;;;;;;;;5058625;28;20188;-70
2021/06/03 07:54:11;;;;;;;9.73;7.88;;;;;;;;;;5050962;28;20544;-69
2021/06/03 07:56:36;;;;;;;9.15;8.35;;;;;;;;;;5056070;28;20619;-70
2021/06/03 07:59:03;;;;;;;8.85;7.55;;;;;;;;;;5055711;28;20739;-69
2021/06/03 08:01:28;;;;;;;11.45;8.05;;;;;;;;;;5054144;28;20198;-70
2021/06/03 08:03:53;;;;;;;12.07;7.53;;;;;;;;;;5060095;28;20585;-70
2021/06/03 08:06:18;;;;;;;10.23;7.83;;;;;;;;;;5053471;28;20198;-70
2021/06/03 08:08:43;;;;;;;14.88;7.85;;;;;;;;;;5055441;28;20422;-71
2021/06/03 08:11:09;;;;;;;11.03;7.60;;;;;;;;;;5067232;28;20241;-71
2021/06/03 08:13:35;;;;;;;8.57;7.30;;;;;;;;;;5059859;28;20556;-71
2021/06/03 08:16:00;;;;;;;8.48;7.68;;;;;;;;;;5059668;28;20454;-71
2021/06/03 08:18:25;;;;;;;11.57;7.75;;;;;;;;;;5054746;28;20720;-70
2021/06/03 08:20:53;;;;;;;9.20;8.30;;;;;;;;;;5058109;28;20179;-70
2021/06/03 08:23:18;;;;;;;8.77;7.82;;;;;;;;;;5061134;28;20209;-71
2021/06/03 08:25:44;;;;;;;9.77;8.25;;;;;;;;;;5065034;28;20229;-73
2021/06/03 08:28:10;;;;;;;9.95;8.95;;;;;;;;;;5050381;28;20197;-71
2021/06/03 08:30:35;;;;;;;10.20;8.18;;;;;;;;;;5051295;28;20209;-71
2021/06/03 08:33:01;;;;;;;9.65;8.85;;;;;;;;;;5053237;28;20196;-71
2021/06/03 08:35:26;;;;;;;8.82;8.00;;;;;;;;;;5056318;28;20200;-70
2021/06/03 08:37:54;;;;;;;8.65;7.57;;;;;;;;;;5058528;28;20635;-71
2021/06/03 08:40:21;;;;;;;8.73;7.90;;;;;;;;;;5054351;28;20195;-71
2021/06/03 08:42:49;;;;;;;10.18;9.27;;;;;;;;;;5059578;28;20218;-71
2021/06/03 08:45:14;;;;;;;9.65;8.65;;;;;;;;;;5053347;28;20666;-71
2021/06/03 08:47:41;;;;;;;10.05;9.00;;;;;;;;;;5052164;28;20173;-71
2021/06/03 08:50:07;;;;;;;7.50;6.72;;;;;;;;;;5052314;28;20186;-71
2021/06/03 08:52:33;;;;;;;8.25;6.85;;;;;;;;;;5052942;28;20205;-71
2021/06/03 08:54:59;;;;;;;7.70;7.03;;;;;;;;;;5053930;28;20650;-71
2021/06/03 08:57:24;;;;;;;8.27;7.50;;;;;;;;;;5059900;28;20196;-71
2021/06/03 08:59:50;;;;;;;10.77;8.80;;;;;;;;;;5057381;28;20182;-70
2021/06/03 09:02:16;;;;;;;9.45;8.07;;;;;;;;;;5055459;28;20196;-72
2021/06/03 09:04:41;;;;;;;7.45;6.75;;;;;;;;;;5058583;28;20173;-72
2021/06/03 09:07:25;;;;;;;8.55;6.90;;;;;;;;;;5056903;28;20660;-71
2021/06/03 09:09:50;;;;;;;9.38;8.40;;;;;;;;;;5053040;28;20832;-71
2021/06/03 09:12:15;;;;;;;8.27;6.97;;;;;;;;;;5051482;28;20184;-71
2021/06/03 09:14:41;;;;;;;5.22;4.82;;;;;;;;;;5051401;28;20254;-71
2021/06/03 09:17:09;;;;;;;8.25;4.70;;;;;;;;;;5053337;28;20201;-71
2021/06/03 09:19:34;;;;;;;7.80;5.47;;;;;;;;;;5050487;28;20188;-71
2021/06/03 09:22:02;;;;;;;6.17;5.57;;;;;;;;;;5055994;28;20188;-72
2021/06/03 09:24:31;;;;;;;5.78;5.10;;;;;;;;;;5060815;28;20202;-71
2021/06/03 09:27:01;;;;;;;7.13;5.57;;;;;;;;;;5050430;28;20266;-72
2021/06/03 09:29:30;;;;;;;7.05;5.30;;;;;;;;;;5052682;28;20915;-72
2021/06/03 09:32:01;;;;;;;5.80;4.43;;;;;;;;;;5058227;28;20478;-72
2021/06/03 09:34:27;;;;;;;6.63;4.57;;;;;;;;;;5051367;28;20685;-72
2021/06/03 09:36:58;;;;;;;4.35;3.95;;;;;;;;;;5051588;28;20211;-71
2021/06/03 09:39:30;;;;;;;7.60;6.40;;;;;;;;;;5050327;28;20188;-71
2021/06/03 09:42:03;;;;;;;6.82;6.18;;;;;;;;;;5056034;28;20181;-71
2021/06/03 09:44:31;;;;;;;7.70;7.00;;;;;;;;;;5051439;28;20225;-70
2021/06/03 09:47:00;;;;;;;8.30;7.47;;;;;;;;;;5055501;28;20234;-70
2021/06/03 09:49:27;;;;;;;8.77;7.93;;;;;;;;;;5052095;28;20184;-71
2021/06/03 09:51:54;;;;;;;9.45;8.35;;;;;;;;;;5051834;28;20176;-71
2021/06/03 09:54:21;;;;;;;9.10;8.13;;;;;;;;;;5051259;28;20212;-72
2021/06/03 09:56:49;;;;;;;9.38;6.22;;;;;;;;;;5055879;28;20189;-71
2021/06/03 09:59:19;;;;;;;6.78;6.03;;;;;;;;;;5057054;28;20177;-71
2021/06/03 10:01:44;;;;;;;8.27;7.50;;;;;;;;;;5056059;28;20170;-72
2021/06/03 10:04:10;;;;;;;8.27;7.57;;;;;;;;;;5050324;28;20197;-71
2021/06/03 10:06:52;;;;;;;7.75;6.75;;;;;;;;;;5059947;28;20421;-72
2021/06/03 10:09:17;;;;;;;9.45;7.15;;;;;;;;;;5049552;28;20181;-72
2021/06/03 10:11:43;;;;;;;8.48;7.78;;;;;;;;;;5051181;28;20242;-72
2021/06/03 10:14:16;;;;;;;7.00;6.03;;;;;;;;;;5051212;28;20204;-71
2021/06/03 10:16:42;;;;;;;7.10;6.32;;;;;;;;;;5052296;28;20725;-70
2021/06/03 10:19:15;;;;;;;5.55;5.03;;;;;;;;;;5053123;28;20292;-71
2021/06/03 10:21:40;;;;;;;8.95;5.50;;;;;;;;;;5051217;28;20268;-71
2021/06/03 10:24:05;;;;;;;6.57;5.93;;;;;;;;;;5051184;28;20646;-73
2021/06/03 10:26:50;;;;;;;7.45;6.70;;;;;;;;;;5055520;28;20192;-71
2021/06/03 10:29:16;;;;;;;8.93;6.20;;;;;;;;;;5051836;28;20191;-71
2021/06/03 10:31:41;;;;;;;6.45;5.70;;;;;;;;;;5057514;28;20230;-71
2021/06/03 10:34:06;;;;;;;5.77;5.17;;;;;;;;;;5050853;28;20656;-71
2021/06/03 10:36:31;;;;;;;6.95;6.25;;;;;;;;;;5057362;28;20243;-72
2021/06/03 10:38:57;;;;;;;6.80;5.47;;;;;;;;;;5051195;28;20192;-71
2021/06/03 10:41:22;;;;;;;7.78;6.97;;;;;;;;;;5062625;28;20172;-71
2021/06/03 10:43:47;;;;;;;6.15;5.28;;;;;;;;;;5050100;28;20201;-71
2021/06/03 10:46:13;;;;;;;5.50;4.85;;;;;;;;;;5059938;28;20542;-71
2021/06/03 10:48:39;;;;;;;7.10;6.27;;;;;;;;;;5052006;28;20772;-71
2021/06/03 10:51:05;;;;;;;9.48;6.18;;;;;;;;;;5052763;28;20197;-72
2021/06/03 10:53:31;;;;;;;7.05;6.35;;;;;;;;;;5048651;28;20204;-71
2021/06/03 10:56:12;;;;;;;8.10;5.72;;;;;;;;;;5051549;28;20204;-71
2021/06/03 10:58:38;;;;;;;6.72;6.05;;;;;;;;;;5052906;28;21740;-70
2021/06/03 11:01:09;;;;;;;8.15;5.72;;;;;;;;;;5060838;28;20187;-71
2021/06/03 11:03:39;;;;;;;7.43;6.57;;;;;;;;;;5049869;28;20500;-71
2021/06/03 11:06:06;;;;;;;5.97;4.70;;;;;;;;;;5056578;28;20250;-71
2021/06/03 11:08:32;;;;;;;6.05;5.00;;;;;;;;;;5052540;28;20181;-72
2021/06/03 11:11:17;;;;;;;7.47;5.20;;;;;;;;;;5057372;28;21784;-71
2021/06/03 11:13:45;;;;;;;7.95;5.43;;;;;;;;;;5052471;28;20212;-71
2021/06/03 11:16:11;;;;;;;8.50;6.72;;;;;;;;;;5049653;28;20215;-71
2021/06/03 11:18:48;;;;;;;8.63;6.03;;;;;;;;;;5054230;28;20623;-71
2021/06/03 11:21:35;;;;;;;6.50;5.43;;;;;;;;;;5052642;28;20172;-71
2021/06/03 11:24:01;;;;;;;7.43;5.50;;;;;;;;;;5051230;28;20193;-70
2021/06/03 11:26:48;;;;;;;7.20;5.63;;;;;;;;;;5049216;28;20212;-71
2021/06/03 11:29:13;;;;;;;6.82;5.65;;;;;;;;;;5051539;28;20189;-71
2021/06/03 11:31:39;;;;;;;7.80;6.75;;;;;;;;;;5056055;28;20574;-71
2021/06/03 11:34:09;;;;;;;7.93;6.55;;;;;;;;;;5056453;28;20229;-71
2021/06/03 11:36:35;;;;;;;7.20;6.40;;;;;;;;;;5064631;28;20871;-74
2021/06/03 11:39:02;;;;;;;8.02;6.40;;;;;;;;;;5053414;28;20206;-72
2021/06/03 11:41:35;;;;;;;7.38;6.63;;;;;;;;;;5062901;28;20738;-71
2021/06/03 11:44:14;;;;;;;8.68;7.40;;;;;;;;;;5052468;28;20207;-71
2021/06/03 11:46:48;;;;;;;8.20;7.43;;;;;;;;;;5058694;28;20241;-70
2021/06/03 11:49:33;;;;;;;9.48;7.53;;;;;;;;;;5055935;28;20242;-71
2021/06/03 11:52:20;;;;;;;7.70;6.50;;;;;;;;;;5055973;28;20181;-71
2021/06/03 11:54:51;;;;;;;7.53;6.90;;;;;;;;;;5054846;28;20896;-71
2021/06/03 11:57:16;;;;;;;7.28;6.68;;;;;;;;;;5052597;28;20690;-74
2021/06/03 12:00:20;;;;;;;8.52;7.10;;;;;;;;;;5053878;28;20276;-71
2021/06/03 12:02:45;;;;;;;8.25;6.88;;;;;;;;;;5031730;28;20239;-71
2021/06/03 12:05:13;;;;;;;7.13;6.43;;;;;;;;;;5031864;28;20341;-71
2021/06/03 12:07:47;;;;;;;8.45;6.95;;;;;;;;;;5048109;28;20444;-71
2021/06/03 12:10:16;;;;;;;6.53;5.88;;;;;;;;;;5050815;28;20188;-71
2021/06/03 12:12:42;;;;;;;7.40;6.57;;;;;;;;;;5054809;28;20201;-72
2021/06/03 12:15:24;;;;;;;9.70;7.72;;;;;;;;;;5056816;28;20293;-71
2021/06/03 12:17:56;;;;;;;9.18;8.02;;;;;;;;;;5051091;28;20263;-71
2021/06/03 12:20:22;;;;;;;10.63;9.73;;;;;;;;;;5056153;28;20264;-71
2021/06/03 12:22:47;;;;;;;12.90;10.10;;;;;;;;;;5053591;28;20569;-71
2021/06/03 12:25:12;;;;;;;11.75;10.55;;;;;;;;;;5053668;28;20173;-71
2021/06/03 12:27:40;;;;;;;10.95;9.75;;;;;;;;;;5053972;28;20283;-71
2021/06/03 12:30:11;;;;;;;13.57;9.32;;;;;;;;;;5053485;28;20200;-71
2021/06/03 12:32:36;;;;;;;11.00;9.95;;;;;;;;;;5053714;28;20682;-70
2021/06/03 12:35:03;;;;;;;9.10;8.20;;;;;;;;;;5055925;28;20233;-71
2021/06/03 12:37:31;;;;;;;12.27;10.55;;;;;;;;;;5056029;28;20791;-70
2021/06/03 12:39:56;;;;;;;14.10;11.55;;;;;;;;;;5066003;28;20591;-71
2021/06/03 12:42:23;;;;;;;10.93;9.90;;;;;;;;;;5057557;28;20180;-72
2021/06/03 12:44:54;;;;;;;10.60;8.48;;;;;;;;;;5057833;28;20554;-71
2021/06/03 12:47:21;;;;;;;9.32;8.15;;;;;;;;;;5059216;28;20616;-71
2021/06/03 12:49:47;;;;;;;12.13;10.85;;;;;;;;;;5058855;28;20181;-71
2021/06/03 12:52:12;;;;;;;11.87;10.77;;;;;;;;;;5058034;28;20191;-71
2021/06/03 12:54:37;;;;;;;12.88;11.68;;;;;;;;;;5054993;28;20184;-72
2021/06/03 12:57:04;;;;;;;10.82;9.82;;;;;;;;;;5051970;28;20208;-71
2021/06/03 12:59:31;;;;;;;8.80;7.90;;;;;;;;;;5053842;28;20425;-71
2021/06/03 13:02:03;;;;;;;8.82;7.55;;;;;;;;;;5053963;28;20177;-72
2021/06/03 13:04:32;;;;;;;7.78;6.70;;;;;;;;;;5055452;28;20201;-71
2021/06/03 13:06:57;;;;;;;10.88;7.05;;;;;;;;;;5056942;28;20188;-71
2021/06/03 13:09:22;;;;;;;9.77;7.80;;;;;;;;;;5052916;28;20177;-71
2021/06/03 13:11:48;;;;;;;9.93;8.93;;;;;;;;;;5059660;28;20851;-71
2021/06/03 13:14:16;;;;;;;12.95;11.70;;;;;;;;;;5052420;28;20245;-72
2021/06/03 13:16:41;;;;;;;12.52;11.23;;;;;;;;;;5052990;28;20915;-72
2021/06/03 13:19:10;;;;;;;15.90;11.52;;;;;;;;;;5050884;28;20233;-71
2021/06/03 13:21:36;;;;;;;15.02;10.63;;;;;;;;;;5053961;28;20189;-71
2021/06/03 13:24:01;;;;;;;10.77;9.87;;;;;;;;;;5057083;28;20579;-71
2021/06/03 13:26:26;;;;;;;11.48;10.48;;;;;;;;;;5055954;28;20984;-72
2021/06/03 13:28:51;;;;;;;15.88;12.70;;;;;;;;;;5049839;28;20177;-71
2021/06/03 13:31:19;;;;;;;15.90;14.27;;;;;;;;;;5049617;28;20184;-71
2021/06/03 13:33:45;;;;;;;16.05;14.10;;;;;;;;;;5049725;28;20258;-72
2021/06/03 13:36:11;;;;;;;15.55;14.02;;;;;;;;;;5054778;28;20217;-71
2021/06/03 13:38:47;;;;;;;15.75;14.35;;;;;;;;;;5050993;28;20173;-71
2021/06/03 13:41:13;;;;;;;13.48;11.38;;;;;;;;;;5052460;28;20179;-71
2021/06/03 13:43:39;;;;;;;12.63;9.80;;;;;;;;;;5051645;28;20754;-71
2021/06/03 13:46:06;;;;;;;13.38;10.35;;;;;;;;;;5063207;28;20343;-71
2021/06/03 13:48:33;;;;;;;14.35;10.23;;;;;;;;;;5055246;28;20212;-71
2021/06/03 13:51:01;;;;;;;12.18;10.65;;;;;;;;;;5053023;28;20185;-72
2021/06/03 13:53:37;;;;;;;16.20;10.90;;;;;;;;;;5053081;28;20254;-72
2021/06/03 13:56:15;;;;;;;14.52;10.50;;;;;;;;;;5059522;28;20217;-71
2021/06/03 13:58:46;;;;;;;15.48;11.85;;;;;;;;;;5053513;28;20169;-72
2021/06/03 14:01:16;;;;;;;12.93;11.55;;;;;;;;;;5053380;28;20180;-71
2021/06/03 14:03:41;;;;;;;13.15;11.40;;;;;;;;;;5051925;28;20250;-72
2021/06/03 14:06:06;;;;;;;13.93;10.93;;;;;;;;;;5054873;28;20184;-72
2021/06/03 14:08:36;;;;;;;12.98;11.68;;;;;;;;;;5051545;28;20495;-71
2021/06/03 14:11:16;;;;;;;12.32;11.20;;;;;;;;;;5054413;28;20271;-71
2021/06/03 14:13:45;;;;;;;15.18;13.65;;;;;;;;;;5051118;28;20612;-71
2021/06/03 14:16:10;;;;;;;16.27;12.90;;;;;;;;;;5059003;28;20193;-72
2021/06/03 14:18:35;;;;;;;12.18;10.95;;;;;;;;;;5053744;28;20184;-71
2021/06/03 14:21:06;;;;;;;13.85;11.98;;;;;;;;;;5054178;28;20184;-71
2021/06/03 14:23:38;;;;;;;17.42;13.50;;;;;;;;;;5048850;28;20197;-72
2021/06/03 14:26:13;;;;;;;14.35;12.90;;;;;;;;;;5060360;28;20185;-72
2021/06/03 14:28:38;;;;;;;18.30;14.18;;;;;;;;;;5053423;28;20187;-72
2021/06/03 14:31:04;;;;;;;19.67;12.77;;;;;;;;;;5052317;28;22108;-72
2021/06/03 14:33:29;;;;;;;15.17;12.90;;;;;;;;;;5050693;28;20552;-72
2021/06/03 14:35:54;;;;;;;17.43;12.97;;;;;;;;;;5053394;28;20483;-72
2021/06/03 14:38:21;;;;;;;13.57;12.23;;;;;;;;;;5053782;28;20430;-72
2021/06/03 14:40:49;;;;;;;14.63;11.80;;;;;;;;;;5053648;28;20505;-71